createdAt,value
2022-12-07T00:04:54.504Z,19.63
2022-12-07T00:09:55.960Z,19.83
2022-12-07T00:14:57.458Z,19.98
2022-12-07T00:19:59.357Z,26.63
2022-12-07T00:25:00.954Z,22.60
2022-12-07T00:30:03.122Z,18.88
2022-12-07T00:35:05.260Z,21.30
2022-12-07T00:40:07.758Z,22.25
2022-12-07T00:45:09.755Z,22.27
2022-12-07T00:50:11.347Z,18.55
2022-12-07T00:55:12.796Z,20.15
2022-12-07T01:00:14.664Z,23.50
2022-12-07T01:05:16.160Z,16.25
2022-12-07T01:10:17.627Z,24.48
2022-12-07T01:15:19.259Z,19.58
2022-12-07T01:20:20.677Z,21.55
2022-12-07T01:25:22.243Z,17.58
2022-12-07T01:30:23.917Z,20.52
2022-12-07T01:35:25.476Z,23.27
2022-12-07T01:40:26.996Z,23.80
2022-12-07T01:45:40.510Z,27.20
2022-12-07T01:50:44.653Z,21.85
2022-12-07T01:55:52.209Z,25.42
2022-12-07T02:00:53.746Z,22.73
2022-12-07T02:05:56.458Z,22.67
2022-12-07T02:10:57.892Z,24.20
2022-12-07T02:16:44.809Z,20.40
2022-12-07T02:22:05.816Z,23.73
2022-12-07T02:27:35.182Z,18.27
2022-12-07T02:32:42.658Z,20.92
2022-12-07T02:38:16.771Z,15.98
2022-12-07T02:43:24.491Z,21.98
2022-12-07T02:48:27.912Z,22.77
2022-12-07T02:53:34.156Z,20.33
2022-12-07T02:58:38.461Z,18.67
2022-12-07T03:03:44.489Z,18.67
2022-12-07T03:09:01.448Z,19.58
2022-12-07T03:14:14.379Z,21.23
2022-12-07T03:19:19.623Z,22.70
2022-12-07T03:24:27.322Z,22.83
2022-12-07T03:29:35.275Z,21.00
2022-12-07T03:35:13.850Z,20.73
2022-12-07T03:40:31.967Z,21.17
2022-12-07T03:45:44.219Z,20.77
2022-12-07T03:50:53.512Z,18.13
2022-12-07T03:55:55.831Z,18.80
2022-12-07T04:00:57.276Z,17.17
2022-12-07T04:05:59.768Z,15.68
2022-12-07T04:11:01.831Z,21.70
2022-12-07T04:16:03.430Z,18.55
2022-12-07T04:21:04.929Z,19.40
2022-12-07T04:26:07.478Z,23.00
2022-12-07T04:31:09.047Z,18.60
2022-12-07T04:36:10.652Z,21.20
2022-12-07T04:41:12.140Z,24.10
2022-12-07T04:46:13.625Z,22.23
2022-12-07T04:51:19.328Z,23.00
2022-12-07T04:56:20.874Z,21.50
2022-12-07T05:01:23.697Z,21.48
2022-12-07T05:06:25.502Z,23.00
2022-12-07T05:11:39.378Z,21.42
2022-12-07T05:16:41.915Z,18.02
2022-12-07T05:21:43.658Z,19.48
2022-12-07T05:26:46.116Z,21.58
2022-12-07T05:31:47.641Z,20.83
2022-12-07T05:36:49.206Z,20.83
2022-12-07T05:42:09.116Z,19.05
2022-12-07T05:47:11.348Z,19.47
2022-12-07T05:52:12.807Z,18.17
2022-12-07T05:57:14.320Z,17.35
2022-12-07T06:02:17.830Z,19.70
2022-12-07T06:07:19.292Z,16.17
2022-12-07T06:12:35.995Z,20.85
2022-12-07T06:17:37.874Z,21.10
2022-12-07T06:22:39.389Z,20.10
2022-12-07T06:27:40.917Z,16.73
2022-12-07T06:32:42.386Z,16.02
2022-12-07T06:37:43.847Z,20.75
2022-12-07T06:42:45.484Z,18.98
2022-12-07T06:47:47.424Z,18.90
2022-12-07T06:52:49.186Z,20.05
2022-12-07T06:57:50.714Z,13.98
2022-12-07T07:02:52.276Z,16.88
2022-12-07T07:13:15.351Z,16.83
2022-12-07T07:18:16.836Z,15.07
2022-12-07T07:23:18.767Z,13.32
2022-12-07T07:28:20.297Z,13.63
2022-12-07T07:33:21.815Z,14.88
2022-12-07T07:38:23.473Z,15.80
2022-12-07T07:43:24.887Z,15.05
2022-12-07T07:48:26.469Z,14.75
2022-12-07T07:53:27.945Z,14.30
2022-12-07T07:58:29.347Z,18.75
2022-12-07T08:03:30.810Z,14.13
2022-12-07T08:08:32.883Z,12.43
2022-12-07T08:13:34.382Z,14.43
2022-12-07T08:18:40.815Z,12.38
2022-12-07T08:23:42.652Z,13.68
2022-12-07T08:28:46.040Z,12.73
2022-12-07T08:33:49.010Z,16.15
2022-12-07T08:39:29.318Z,13.40
2022-12-07T08:44:12.767Z,16.65
2022-12-07T08:49:19.087Z,10.90
2022-12-07T08:54:20.789Z,12.52
2022-12-07T08:59:22.544Z,11.82
2022-12-07T09:04:24.064Z,12.55
2022-12-07T09:09:25.640Z,13.18
2022-12-07T09:14:27.165Z,14.38
2022-12-07T09:19:28.583Z,11.40
2022-12-07T09:24:30.058Z,14.13
2022-12-07T09:29:31.477Z,14.35
2022-12-07T09:34:33.285Z,11.80
2022-12-07T09:39:38.324Z,14.32
2022-12-07T09:44:41.332Z,13.15
2022-12-07T09:49:42.854Z,12.82
2022-12-07T09:54:48.360Z,13.45
2022-12-07T09:59:49.809Z,13.65
2022-12-07T10:04:51.435Z,10.93
2022-12-07T10:09:52.926Z,10.60
2022-12-07T10:15:18.411Z,10.82
2022-12-07T10:20:28.178Z,11.45
2022-12-07T10:25:35.363Z,12.60
2022-12-07T10:30:55.429Z,13.23
2022-12-07T10:35:57.783Z,14.35
2022-12-07T10:41:07.692Z,11.18
2022-12-07T10:46:38.429Z,10.60
2022-12-07T10:51:50.454Z,13.15
2022-12-07T10:57:10.637Z,9.10
2022-12-07T11:02:27.500Z,11.32
2022-12-07T11:07:38.186Z,10.48
2022-12-07T11:12:39.603Z,11.55
2022-12-07T11:17:49.842Z,11.32
2022-12-07T11:23:18.593Z,12.85
2022-12-07T11:28:38.412Z,13.63
2022-12-07T11:33:46.907Z,10.93
2022-12-07T11:38:56.058Z,11.18
2022-12-07T11:44:07.138Z,13.05
2022-12-07T11:49:36.482Z,11.75
2022-12-07T11:54:44.530Z,11.43
2022-12-07T11:59:52.571Z,9.95
2022-12-07T12:04:56.642Z,8.95
2022-12-07T12:10:07.625Z,14.02
2022-12-07T12:15:24.618Z,14.80
2022-12-07T12:20:50.634Z,13.68
2022-12-07T12:26:02.456Z,13.95
2022-12-07T12:31:11.874Z,18.98
2022-12-07T12:36:19.098Z,15.05
2022-12-07T12:41:47.897Z,11.63
2022-12-07T12:46:52.417Z,18.50
2022-12-07T12:51:59.680Z,11.25
2022-12-07T12:57:13.036Z,11.82
2022-12-07T13:02:22.004Z,14.82
2022-12-07T13:07:48.421Z,14.55
2022-12-07T13:13:14.831Z,12.80
2022-12-07T13:18:25.366Z,18.77
2022-12-07T13:28:46.480Z,13.82
2022-12-07T13:33:49.076Z,16.88
2022-12-07T13:39:15.388Z,18.48
2022-12-07T13:44:18.199Z,26.05
2022-12-07T13:49:31.184Z,18.35
2022-12-07T13:54:32.623Z,33.45
2022-12-07T13:59:34.524Z,17.15
2022-12-07T14:04:38.059Z,17.63
2022-12-07T14:09:39.478Z,16.42
2022-12-07T14:14:49.097Z,17.92
2022-12-07T14:19:56.073Z,16.20
2022-12-07T14:25:18.245Z,14.25
2022-12-07T14:30:20.170Z,16.75
2022-12-07T14:35:21.798Z,14.73
2022-12-07T14:40:25.427Z,11.95
2022-12-07T14:45:26.844Z,16.00
2022-12-07T14:50:28.357Z,14.82
2022-12-07T14:55:32.355Z,15.07
2022-12-07T15:00:35.195Z,12.00
2022-12-07T15:05:38.139Z,16.40
2022-12-07T15:10:41.102Z,15.65
2022-12-07T15:15:42.901Z,13.40
2022-12-07T15:20:45.110Z,15.93
2022-12-07T15:25:48.304Z,14.32
2022-12-07T15:30:49.778Z,15.90
2022-12-07T15:35:51.296Z,14.75
2022-12-07T15:40:52.726Z,17.45
2022-12-07T15:45:54.207Z,20.25
2022-12-07T15:51:06.634Z,13.57
2022-12-07T15:56:08.927Z,17.75
2022-12-07T16:01:14.450Z,18.67
2022-12-07T16:06:20.292Z,17.08
2022-12-07T16:11:21.934Z,16.90
2022-12-07T16:16:23.683Z,16.23
2022-12-07T16:21:25.913Z,16.35
2022-12-07T16:26:27.579Z,19.80
2022-12-07T16:31:29.533Z,21.92
2022-12-07T16:41:53.854Z,20.55
2022-12-07T16:46:55.528Z,21.80
2022-12-07T16:52:26.056Z,22.13
2022-12-07T16:57:23.143Z,24.58
2022-12-07T17:02:26.284Z,20.67
2022-12-07T17:07:27.749Z,19.55
2022-12-07T17:12:29.222Z,22.25
2022-12-07T17:17:30.753Z,20.75
2022-12-07T17:22:32.218Z,17.58
2022-12-07T17:27:33.801Z,20.45
2022-12-07T17:32:35.275Z,19.40
2022-12-07T17:37:36.749Z,21.48
2022-12-07T17:42:39.974Z,23.30
2022-12-07T17:47:41.507Z,23.58
2022-12-07T17:53:01.480Z,22.20
2022-12-07T17:58:02.917Z,25.75
2022-12-07T18:03:09.502Z,27.45
2022-12-07T18:08:11.121Z,27.58
2022-12-07T18:13:31.314Z,26.70
2022-12-07T18:18:32.817Z,30.00
2022-12-07T18:23:34.458Z,30.77
2022-12-07T18:28:35.946Z,28.52
2022-12-07T18:33:37.515Z,23.17
2022-12-07T18:38:39.611Z,23.60
2022-12-07T18:43:42.153Z,22.38
2022-12-07T18:48:45.462Z,26.83
2022-12-07T18:53:47.221Z,31.80
2022-12-07T18:59:09.029Z,31.40
2022-12-07T19:04:10.975Z,25.23
2022-12-07T19:09:13.537Z,21.83
2022-12-07T19:14:33.106Z,20.15
2022-12-07T19:19:36.990Z,20.05
2022-12-07T19:24:38.651Z,20.17
2022-12-07T19:29:40.583Z,24.33
2022-12-07T19:34:43.895Z,23.90
2022-12-07T19:39:46.568Z,22.75
2022-12-07T19:44:48.548Z,19.05
2022-12-07T19:49:50.033Z,15.30
2022-12-07T19:54:51.501Z,21.70
2022-12-07T19:59:52.932Z,18.65
2022-12-07T20:04:54.352Z,53.45
2022-12-07T20:09:55.918Z,38.95
2022-12-07T20:14:57.582Z,83.63
2022-12-07T20:19:59.009Z,53.85
2022-12-07T20:25:00.521Z,48.90
2022-12-07T20:30:02.041Z,49.65
2022-12-07T20:35:03.666Z,35.25
2022-12-07T20:40:06.398Z,26.27
2022-12-07T20:45:09.598Z,34.55
2022-12-07T20:50:11.377Z,34.28
2022-12-07T20:55:13.194Z,33.90
2022-12-07T21:00:15.153Z,32.90
2022-12-07T21:05:18.622Z,34.15
2022-12-07T21:10:20.076Z,29.40
2022-12-07T21:15:21.535Z,29.20
2022-12-07T21:20:22.946Z,32.60
2022-12-07T21:25:24.406Z,34.63
2022-12-07T21:30:25.863Z,34.63
2022-12-07T21:35:27.320Z,36.25
2022-12-07T21:40:28.786Z,26.63
2022-12-07T21:45:32.755Z,25.20
2022-12-07T21:50:37.986Z,20.90
2022-12-07T21:55:43.985Z,73.00
2022-12-07T22:00:45.421Z,32.03
2022-12-07T22:05:47.012Z,33.72
2022-12-07T22:10:48.434Z,35.97
2022-12-07T22:15:49.954Z,34.30
2022-12-07T22:20:56.191Z,34.97
2022-12-07T22:25:59.032Z,38.92
2022-12-07T22:31:06.907Z,37.85
2022-12-07T22:36:09.501Z,31.85
2022-12-07T22:41:12.326Z,29.67
2022-12-07T22:46:13.871Z,29.23
2022-12-07T22:51:24.692Z,35.05
2022-12-07T22:56:26.915Z,26.92
2022-12-07T23:01:28.383Z,22.63
2022-12-07T23:06:32.232Z,24.88
2022-12-07T23:11:55.787Z,28.42
2022-12-07T23:16:57.611Z,31.52
2022-12-07T23:21:59.124Z,38.20
2022-12-07T23:27:00.652Z,35.67
2022-12-07T23:32:02.214Z,32.95
2022-12-07T23:37:03.672Z,30.35
2022-12-07T23:42:05.166Z,23.40
2022-12-07T23:47:06.692Z,23.20
2022-12-07T23:52:08.258Z,26.55
2022-12-07T23:57:09.912Z,19.77
